Time;durP1;ratioP1;P1;durP2;ratioP2;P2;SDS_P1;SDS_P2;PMS_P1;PMS_P2;Temp;Humidity;BMP_temperature;BMP_pressure;BME280_temperature;BME280_humidity;BME280_pressure;Samples;Min_cycle;Max_cycle;Signal;HPM_P1;HPM_P2
2023/08/07 00:01:55;;;;;;;2.77;1.80;;;;;;;;;;5028606;28;20661;-54
2023/08/07 00:04:21;;;;;;;3.57;1.90;;;;;;;;;;5009700;28;20694;-54
2023/08/07 00:06:47;;;;;;;2.20;2.00;;;;;;;;;;5026713;28;20194;-53
2023/08/07 00:09:14;;;;;;;6.03;2.50;;;;;;;;;;5027073;28;20717;-54
2023/08/07 00:11:40;;;;;;;2.10;1.90;;;;;;;;;;5027911;28;20190;-54
2023/08/07 00:14:06;;;;;;;4.23;2.00;;;;;;;;;;5028167;28;20226;-54
2023/08/07 00:16:32;;;;;;;4.00;2.43;;;;;;;;;;5028808;28;20549;-54
2023/08/07 00:19:02;;;;;;;4.90;2.30;;;;;;;;;;5027684;28;20211;-54
2023/08/07 00:21:28;;;;;;;3.00;1.90;;;;;;;;;;5027788;28;21649;-54
2023/08/07 00:23:54;;;;;;;5.40;2.17;;;;;;;;;;5025729;28;20195;-54
2023/08/07 00:26:21;;;;;;;3.13;1.93;;;;;;;;;;5028865;28;20181;-55
2023/08/07 00:28:47;;;;;;;3.97;2.17;;;;;;;;;;5026784;28;20203;-53
2023/08/07 00:31:13;;;;;;;2.23;1.90;;;;;;;;;;5025565;28;20216;-55
2023/08/07 00:33:39;;;;;;;3.63;2.30;;;;;;;;;;5027614;28;20219;-55
2023/08/07 00:36:05;;;;;;;6.47;2.50;;;;;;;;;;5025976;28;20233;-55
2023/08/07 00:38:32;;;;;;;2.27;1.90;;;;;;;;;;5025409;28;20655;-55
2023/08/07 00:40:59;;;;;;;2.93;2.17;;;;;;;;;;5028002;28;20189;-54
2023/08/07 00:43:25;;;;;;;8.63;2.57;;;;;;;;;;5025502;28;20178;-55
2023/08/07 00:45:52;;;;;;;3.63;2.00;;;;;;;;;;5009669;28;20192;-52
2023/08/07 00:48:18;;;;;;;5.17;2.17;;;;;;;;;;5026530;28;20246;-52
2023/08/07 00:50:45;;;;;;;4.83;2.47;;;;;;;;;;5026335;28;20189;-52
2023/08/07 00:53:12;;;;;;;2.43;1.90;;;;;;;;;;5011762;28;20610;-52
2023/08/07 00:55:38;;;;;;;3.77;2.13;;;;;;;;;;5027669;28;20210;-52
2023/08/07 00:58:05;;;;;;;6.38;2.90;;;;;;;;;;5007895;28;20781;-52
2023/08/07 01:00:31;;;;;;;4.47;2.30;;;;;;;;;;5026029;28;20628;-52
2023/08/07 01:02:57;;;;;;;3.43;1.77;;;;;;;;;;5027455;28;20189;-51
2023/08/07 01:05:25;;;;;;;4.63;2.43;;;;;;;;;;5026736;28;20182;-51
2023/08/07 01:07:54;;;;;;;3.93;2.03;;;;;;;;;;5025854;28;20689;-52
2023/08/07 01:10:41;;;;;;;4.37;2.20;;;;;;;;;;5023490;28;20190;-52
2023/08/07 01:13:29;;;;;;;2.57;1.70;;;;;;;;;;5018681;28;20193;-52
2023/08/07 01:15:59;;;;;;;3.70;2.00;;;;;;;;;;5021782;28;20201;-52
2023/08/07 01:18:27;;;;;;;3.87;2.70;;;;;;;;;;5025661;28;20212;-52
2023/08/07 01:20:54;;;;;;;3.37;2.20;;;;;;;;;;5022745;28;20189;-52
2023/08/07 01:23:20;;;;;;;3.13;2.03;;;;;;;;;;5005737;28;20784;-52
2023/08/07 01:25:46;;;;;;;2.90;2.03;;;;;;;;;;5022488;28;20200;-53
2023/08/07 01:28:19;;;;;;;2.80;2.10;;;;;;;;;;5025397;28;20616;-52
2023/08/07 01:30:50;;;;;;;3.50;2.37;;;;;;;;;;5008825;28;20225;-52
2023/08/07 01:33:35;;;;;;;3.97;2.20;;;;;;;;;;5025757;28;20194;-52
2023/08/07 01:36:03;;;;;;;5.23;2.20;;;;;;;;;;5023591;28;22043;-52
2023/08/07 01:38:30;;;;;;;4.80;2.37;;;;;;;;;;5024144;28;20291;-52
2023/08/07 01:40:57;;;;;;;5.27;2.60;;;;;;;;;;5023055;28;20744;-52
2023/08/07 01:43:23;;;;;;;2.93;2.03;;;;;;;;;;5029215;28;20556;-52
2023/08/07 01:45:49;;;;;;;3.33;2.17;;;;;;;;;;5028554;28;20197;-52
2023/08/07 01:48:15;;;;;;;5.43;2.23;;;;;;;;;;5029481;28;20618;-52
2023/08/07 01:50:42;;;;;;;3.40;2.47;;;;;;;;;;5029146;28;20235;-52
2023/08/07 01:53:08;;;;;;;7.53;3.00;;;;;;;;;;5026734;28;20200;-52
2023/08/07 01:55:34;;;;;;;4.60;1.80;;;;;;;;;;5030412;28;20278;-53
2023/08/07 01:58:00;;;;;;;3.90;1.97;;;;;;;;;;5025276;28;22220;-53
2023/08/07 02:00:26;;;;;;;3.40;2.30;;;;;;;;;;5028921;28;20193;-54
2023/08/07 02:02:52;;;;;;;6.53;2.47;;;;;;;;;;5028283;28;20183;-54
2023/08/07 02:05:18;;;;;;;5.13;2.10;;;;;;;;;;5029299;28;20218;-54
2023/08/07 02:07:45;;;;;;;3.50;1.90;;;;;;;;;;5027069;28;20226;-54
2023/08/07 02:10:11;;;;;;;2.83;2.10;;;;;;;;;;5030579;28;20326;-54
2023/08/07 02:12:37;;;;;;;3.50;2.20;;;;;;;;;;5029214;28;20626;-54
2023/08/07 02:15:03;;;;;;;3.63;1.93;;;;;;;;;;5027618;28;20579;-54
2023/08/07 02:17:47;;;;;;;4.27;2.40;;;;;;;;;;5030388;28;20202;-54
2023/08/07 02:20:13;;;;;;;3.67;1.80;;;;;;;;;;5010908;28;20189;-54
2023/08/07 02:22:39;;;;;;;3.43;1.83;;;;;;;;;;5027685;28;20576;-54
2023/08/07 02:25:06;;;;;;;6.63;2.83;;;;;;;;;;5028739;28;20600;-53
2023/08/07 02:27:32;;;;;;;3.50;1.93;;;;;;;;;;5028029;28;20192;-53
2023/08/07 02:29:58;;;;;;;3.97;2.20;;;;;;;;;;5022421;28;20611;-53
2023/08/07 02:32:24;;;;;;;3.17;2.20;;;;;;;;;;5029893;28;20328;-53
2023/08/07 02:34:50;;;;;;;5.40;1.77;;;;;;;;;;5028818;28;20714;-53
2023/08/07 02:37:16;;;;;;;2.73;2.07;;;;;;;;;;5027678;28;20643;-53
2023/08/07 02:39:42;;;;;;;5.23;2.10;;;;;;;;;;5029545;28;20190;-54
2023/08/07 02:42:08;;;;;;;4.27;2.30;;;;;;;;;;5028103;28;20212;-54
2023/08/07 02:44:34;;;;;;;5.13;2.40;;;;;;;;;;5028084;28;20192;-54
2023/08/07 02:47:00;;;;;;;5.57;2.73;;;;;;;;;;5027726;28;20551;-54
2023/08/07 02:49:26;;;;;;;2.67;2.00;;;;;;;;;;5028903;28;20196;-53
2023/08/07 02:51:52;;;;;;;4.33;2.17;;;;;;;;;;5028380;28;20666;-54
2023/08/07 02:54:18;;;;;;;5.33;2.30;;;;;;;;;;5026518;28;20550;-54
2023/08/07 02:56:44;;;;;;;4.60;2.00;;;;;;;;;;5028276;28;20251;-54
2023/08/07 02:59:11;;;;;;;5.07;2.37;;;;;;;;;;5027777;28;20283;-54
2023/08/07 03:01:37;;;;;;;4.70;2.27;;;;;;;;;;5027688;28;20192;-54
2023/08/07 03:04:03;;;;;;;3.33;2.33;;;;;;;;;;5029475;28;20184;-54
2023/08/07 03:06:29;;;;;;;3.33;2.27;;;;;;;;;;5026785;28;20183;-55
2023/08/07 03:08:55;;;;;;;7.43;2.53;;;;;;;;;;5026489;28;20189;-55
2023/08/07 03:11:21;;;;;;;5.07;2.40;;;;;;;;;;5024471;28;20216;-55
2023/08/07 03:13:48;;;;;;;5.03;3.00;;;;;;;;;;5025006;28;20188;-55
2023/08/07 03:16:15;;;;;;;6.03;2.73;;;;;;;;;;5026869;28;20207;-54
2023/08/07 03:18:41;;;;;;;5.93;2.23;;;;;;;;;;5025365;28;20261;-54
2023/08/07 03:21:07;;;;;;;6.23;2.10;;;;;;;;;;5024479;28;20195;-54
2023/08/07 03:23:33;;;;;;;3.70;2.47;;;;;;;;;;5028763;28;20220;-55
2023/08/07 03:26:07;;;;;;;3.90;2.10;;;;;;;;;;5027272;28;20255;-54
2023/08/07 03:28:33;;;;;;;4.27;3.07;;;;;;;;;;5025198;28;20197;-55
2023/08/07 03:30:59;;;;;;;5.57;2.60;;;;;;;;;;5027242;28;20674;-55
2023/08/07 03:33:25;;;;;;;5.00;2.47;;;;;;;;;;5027097;28;20202;-54
2023/08/07 03:35:52;;;;;;;3.93;2.30;;;;;;;;;;5024898;28;20232;-54
2023/08/07 03:38:18;;;;;;;5.73;2.60;;;;;;;;;;5025993;28;20186;-54
2023/08/07 03:40:44;;;;;;;3.67;2.40;;;;;;;;;;5025305;28;20640;-54
2023/08/07 03:43:10;;;;;;;5.27;2.60;;;;;;;;;;5025819;28;20217;-55
2023/08/07 03:45:36;;;;;;;8.67;2.80;;;;;;;;;;5027948;28;20209;-55
2023/08/07 03:48:02;;;;;;;5.57;2.43;;;;;;;;;;5026402;28;20199;-55
2023/08/07 03:50:30;;;;;;;4.77;2.80;;;;;;;;;;5028151;28;20662;-55
2023/08/07 03:52:56;;;;;;;3.27;2.10;;;;;;;;;;5027129;28;20191;-55
2023/08/07 03:55:22;;;;;;;4.43;2.87;;;;;;;;;;5025025;28;20257;-54
2023/08/07 03:57:48;;;;;;;5.27;2.97;;;;;;;;;;5024369;28;20659;-54
2023/08/07 04:00:15;;;;;;;5.07;2.50;;;;;;;;;;5024082;28;20198;-55
2023/08/07 04:02:41;;;;;;;3.00;2.43;;;;;;;;;;5028092;28;20245;-55
2023/08/07 04:05:07;;;;;;;5.80;3.00;;;;;;;;;;5026092;28;20196;-55
2023/08/07 04:07:33;;;;;;;4.17;2.80;;;;;;;;;;5024964;28;20196;-55
2023/08/07 04:09:59;;;;;;;4.20;2.43;;;;;;;;;;5027174;28;20193;-55
2023/08/07 04:12:25;;;;;;;4.17;2.10;;;;;;;;;;5027340;28;20673;-55
2023/08/07 04:14:51;;;;;;;4.50;2.33;;;;;;;;;;5023208;28;20207;-52
2023/08/07 04:17:18;;;;;;;5.97;2.60;;;;;;;;;;5025885;28;20236;-52
2023/08/07 04:19:44;;;;;;;5.67;2.87;;;;;;;;;;5025805;28;20196;-53
2023/08/07 04:22:10;;;;;;;4.60;2.60;;;;;;;;;;5025584;28;20191;-52
2023/08/07 04:24:36;;;;;;;5.27;2.40;;;;;;;;;;5023846;28;20195;-52
2023/08/07 04:27:05;;;;;;;4.87;2.30;;;;;;;;;;5025220;28;20682;-52
2023/08/07 04:29:32;;;;;;;5.40;2.80;;;;;;;;;;5025241;28;20590;-51
2023/08/07 04:31:58;;;;;;;3.90;2.90;;;;;;;;;;5026508;28;20224;-51
2023/08/07 04:34:24;;;;;;;4.73;2.70;;;;;;;;;;5027378;28;20216;-52
2023/08/07 04:36:53;;;;;;;6.23;2.53;;;;;;;;;;5024319;28;20225;-52
2023/08/07 04:39:19;;;;;;;3.40;2.30;;;;;;;;;;5026537;28;20194;-51
2023/08/07 04:41:45;;;;;;;3.97;2.30;;;;;;;;;;5024357;28;20282;-52
2023/08/07 04:44:11;;;;;;;4.73;2.70;;;;;;;;;;5026175;28;20195;-51
2023/08/07 04:46:38;;;;;;;5.53;2.80;;;;;;;;;;5025702;28;20813;-52
2023/08/07 04:49:05;;;;;;;5.00;3.20;;;;;;;;;;5025992;28;20186;-51
2023/08/07 04:51:31;;;;;;;2.93;2.50;;;;;;;;;;5025695;28;20191;-51
2023/08/07 04:53:58;;;;;;;5.67;2.67;;;;;;;;;;5025443;28;20271;-52
2023/08/07 04:56:24;;;;;;;7.93;3.10;;;;;;;;;;5027260;28;20194;-52
2023/08/07 04:58:50;;;;;;;6.87;3.07;;;;;;;;;;5024480;28;20290;-52
2023/08/07 05:01:16;;;;;;;8.23;3.20;;;;;;;;;;5022340;28;20199;-52
2023/08/07 05:03:42;;;;;;;5.60;2.73;;;;;;;;;;5020199;28;20193;-51
2023/08/07 05:06:08;;;;;;;5.53;2.60;;;;;;;;;;5021491;28;20186;-52
2023/08/07 05:08:34;;;;;;;4.43;2.47;;;;;;;;;;5025048;28;20178;-52
2023/08/07 05:11:00;;;;;;;7.73;3.37;;;;;;;;;;5023352;28;20188;-52
2023/08/07 05:13:26;;;;;;;4.43;2.13;;;;;;;;;;5026366;28;20204;-52
2023/08/07 05:15:52;;;;;;;3.60;2.50;;;;;;;;;;5023256;28;20635;-52
2023/08/07 05:18:19;;;;;;;4.40;3.00;;;;;;;;;;5030610;28;20188;-52
2023/08/07 05:20:45;;;;;;;5.10;3.10;;;;;;;;;;5029952;28;20189;-52
2023/08/07 05:23:11;;;;;;;4.53;2.90;;;;;;;;;;5034528;28;20182;-51
2023/08/07 05:25:38;;;;;;;5.23;3.17;;;;;;;;;;5029239;28;20218;-52
2023/08/07 05:28:05;;;;;;;5.30;2.53;;;;;;;;;;5030060;28;20236;-51
2023/08/07 05:30:32;;;;;;;7.00;3.27;;;;;;;;;;5009512;28;20222;-52
2023/08/07 05:32:58;;;;;;;5.90;3.10;;;;;;;;;;5028321;28;20200;-52
2023/08/07 05:35:25;;;;;;;9.57;3.37;;;;;;;;;;5015467;28;20368;-55
2023/08/07 05:37:51;;;;;;;9.87;3.17;;;;;;;;;;5022599;28;20191;-54
2023/08/07 05:40:17;;;;;;;5.10;2.87;;;;;;;;;;5028805;28;20290;-54
2023/08/07 05:42:44;;;;;;;4.13;2.40;;;;;;;;;;5030995;28;20597;-55
2023/08/07 05:45:10;;;;;;;8.70;3.73;;;;;;;;;;5031215;28;20653;-55
2023/08/07 05:47:37;;;;;;;6.00;2.70;;;;;;;;;;5024956;28;20577;-55
2023/08/07 05:50:03;;;;;;;6.57;2.97;;;;;;;;;;5028978;28;20198;-56
2023/08/07 05:52:29;;;;;;;5.37;3.17;;;;;;;;;;5027925;28;20249;-56
2023/08/07 05:54:55;;;;;;;6.33;3.20;;;;;;;;;;5029404;28;20596;-56
2023/08/07 05:57:22;;;;;;;8.63;3.40;;;;;;;;;;5027339;28;20646;-55
2023/08/07 05:59:48;;;;;;;7.50;3.30;;;;;;;;;;5026051;28;20194;-55
2023/08/07 06:02:14;;;;;;;6.37;3.10;;;;;;;;;;5026127;28;20239;-54
2023/08/07 06:04:40;;;;;;;3.83;2.80;;;;;;;;;;5011680;28;20783;-55
2023/08/07 06:07:07;;;;;;;4.47;2.73;;;;;;;;;;5026647;28;20254;-55
2023/08/07 06:09:33;;;;;;;7.37;3.10;;;;;;;;;;5028452;28;20194;-55
2023/08/07 06:11:59;;;;;;;5.50;3.03;;;;;;;;;;5030605;28;20563;-55
2023/08/07 06:14:25;;;;;;;4.50;2.97;;;;;;;;;;5028369;28;20597;-55
2023/08/07 06:16:52;;;;;;;6.23;3.20;;;;;;;;;;5026483;28;20185;-55
2023/08/07 06:19:19;;;;;;;6.97;3.33;;;;;;;;;;5029104;28;20830;-55
2023/08/07 06:21:46;;;;;;;6.07;3.10;;;;;;;;;;5022521;28;20187;-55
2023/08/07 06:24:12;;;;;;;8.00;2.97;;;;;;;;;;5024631;28;20178;-54
2023/08/07 06:26:38;;;;;;;5.03;2.73;;;;;;;;;;5024187;28;20194;-54
2023/08/07 06:29:04;;;;;;;3.03;2.30;;;;;;;;;;5028432;28;20189;-54
2023/08/07 06:31:30;;;;;;;3.57;2.57;;;;;;;;;;5032194;28;20232;-56
2023/08/07 06:33:59;;;;;;;3.90;2.63;;;;;;;;;;5021581;28;20724;-56
2023/08/07 06:36:26;;;;;;;5.07;2.70;;;;;;;;;;5025822;28;20704;-55
2023/08/07 06:38:52;;;;;;;6.33;3.13;;;;;;;;;;5027630;28;20265;-54
2023/08/07 06:41:18;;;;;;;5.63;2.90;;;;;;;;;;5030674;28;20542;-55
2023/08/07 06:43:44;;;;;;;5.77;2.60;;;;;;;;;;5028650;28;20709;-55
2023/08/07 06:46:11;;;;;;;3.70;2.53;;;;;;;;;;5011568;28;20189;-55
2023/08/07 06:48:37;;;;;;;4.37;2.57;;;;;;;;;;5027654;28;20610;-55
2023/08/07 06:51:03;;;;;;;7.10;2.73;;;;;;;;;;5026280;28;20280;-55
2023/08/07 06:53:29;;;;;;;4.23;2.93;;;;;;;;;;5028570;28;20182;-55
2023/08/07 06:55:55;;;;;;;4.40;2.97;;;;;;;;;;5028257;28;20221;-55
2023/08/07 06:58:21;;;;;;;2.60;2.40;;;;;;;;;;5028054;28;20209;-54
2023/08/07 07:00:48;;;;;;;5.30;3.20;;;;;;;;;;5026987;28;20239;-55
2023/08/07 07:03:15;;;;;;;3.30;2.23;;;;;;;;;;5012122;28;20191;-54
2023/08/07 07:05:42;;;;;;;2.67;2.47;;;;;;;;;;5027261;28;20198;-54
2023/08/07 07:08:08;;;;;;;5.70;2.80;;;;;;;;;;5023202;28;20279;-54
2023/08/07 07:10:35;;;;;;;5.47;2.70;;;;;;;;;;5028061;28;20194;-56
2023/08/07 07:13:01;;;;;;;5.67;3.20;;;;;;;;;;5024707;28;20608;-55
2023/08/07 07:15:27;;;;;;;6.60;3.20;;;;;;;;;;5026475;28;20750;-55
2023/08/07 07:17:53;;;;;;;4.87;2.60;;;;;;;;;;5023885;28;20269;-54
2023/08/07 07:20:19;;;;;;;5.50;2.60;;;;;;;;;;5026280;28;20684;-54
2023/08/07 07:22:45;;;;;;;4.90;3.40;;;;;;;;;;5023918;28;20216;-55
2023/08/07 07:25:11;;;;;;;5.60;3.40;;;;;;;;;;5028793;28;20191;-55
2023/08/07 07:27:37;;;;;;;3.80;2.57;;;;;;;;;;5026182;28;20193;-55
2023/08/07 07:30:03;;;;;;;3.33;2.30;;;;;;;;;;5024567;28;20191;-55
2023/08/07 07:32:29;;;;;;;4.80;2.77;;;;;;;;;;5029515;28;20671;-55
2023/08/07 07:34:55;;;;;;;3.50;2.77;;;;;;;;;;5026170;28;20222;-55
2023/08/07 07:37:22;;;;;;;4.67;2.60;;;;;;;;;;5025635;28;20309;-55
2023/08/07 07:39:48;;;;;;;2.97;2.30;;;;;;;;;;5027170;28;20220;-55
2023/08/07 07:42:14;;;;;;;4.90;2.70;;;;;;;;;;5027502;28;20668;-55
2023/08/07 07:44:40;;;;;;;3.43;2.10;;;;;;;;;;5028240;28;20262;-55
2023/08/07 07:47:07;;;;;;;5.60;2.70;;;;;;;;;;5028691;28;20199;-55
2023/08/07 07:49:33;;;;;;;4.90;3.13;;;;;;;;;;5027247;28;20259;-55
2023/08/07 07:52:00;;;;;;;4.47;2.63;;;;;;;;;;5024247;28;20240;-55
2023/08/07 07:54:26;;;;;;;5.30;2.67;;;;;;;;;;5025121;28;20195;-55
2023/08/07 07:56:52;;;;;;;3.00;2.47;;;;;;;;;;5023892;28;20322;-55
2023/08/07 07:59:18;;;;;;;3.90;2.67;;;;;;;;;;4998123;28;20195;-55
2023/08/07 08:01:44;;;;;;;4.47;3.20;;;;;;;;;;5028255;28;20221;-55
2023/08/07 08:04:10;;;;;;;2.87;1.90;;;;;;;;;;5023134;28;20218;-55
2023/08/07 08:06:37;;;;;;;4.37;2.40;;;;;;;;;;5022454;28;20277;-54
2023/08/07 08:09:04;;;;;;;2.57;2.10;;;;;;;;;;5026694;28;20183;-54
2023/08/07 08:11:31;;;;;;;4.07;2.97;;;;;;;;;;5024833;28;20188;-54
2023/08/07 08:13:57;;;;;;;4.17;2.60;;;;;;;;;;5020836;28;20189;-54
2023/08/07 08:16:23;;;;;;;5.77;3.20;;;;;;;;;;5020947;28;20705;-54
2023/08/07 08:18:49;;;;;;;2.53;2.20;;;;;;;;;;5009335;28;20556;-54
2023/08/07 08:21:15;;;;;;;4.33;2.53;;;;;;;;;;5006534;28;20183;-54
2023/08/07 08:23:41;;;;;;;5.93;3.20;;;;;;;;;;5026462;28;20617;-54
2023/08/07 08:26:07;;;;;;;6.13;3.33;;;;;;;;;;5024853;28;20187;-54
2023/08/07 08:28:34;;;;;;;3.57;2.17;;;;;;;;;;5026422;28;20206;-54
2023/08/07 08:31:00;;;;;;;3.43;2.50;;;;;;;;;;5025058;28;20748;-54
2023/08/07 08:33:26;;;;;;;4.63;2.53;;;;;;;;;;5022416;28;20721;-54
2023/08/07 08:35:52;;;;;;;4.93;2.43;;;;;;;;;;5021054;28;20222;-54
2023/08/07 08:38:19;;;;;;;3.07;2.40;;;;;;;;;;5027415;28;20657;-53
2023/08/07 08:40:45;;;;;;;3.70;1.97;;;;;;;;;;5022674;28;20195;-53
2023/08/07 08:43:13;;;;;;;7.33;2.53;;;;;;;;;;5023316;28;20514;-54
2023/08/07 08:45:40;;;;;;;6.23;2.57;;;;;;;;;;5026009;28;20690;-54
2023/08/07 08:48:08;;;;;;;5.00;2.57;;;;;;;;;;5027696;28;20545;-54
2023/08/07 08:50:35;;;;;;;4.40;2.40;;;;;;;;;;5025054;28;20230;-54
2023/08/07 08:53:03;;;;;;;7.43;3.23;;;;;;;;;;5023325;28;20200;-53
2023/08/07 08:55:30;;;;;;;5.27;2.73;;;;;;;;;;5026883;28;20214;-53
2023/08/07 08:58:00;;;;;;;3.47;2.33;;;;;;;;;;5028676;28;20313;-53
2023/08/07 09:00:27;;;;;;;5.07;2.77;;;;;;;;;;5023645;28;20205;-53
2023/08/07 09:02:53;;;;;;;4.43;2.50;;;;;;;;;;5026433;28;20639;-53
2023/08/07 09:05:20;;;;;;;4.70;2.93;;;;;;;;;;5025649;28;20245;-53
2023/08/07 09:07:47;;;;;;;5.80;2.40;;;;;;;;;;5024929;28;20209;-53
2023/08/07 09:10:14;;;;;;;6.30;2.77;;;;;;;;;;5026685;28;20669;-53
2023/08/07 09:12:41;;;;;;;5.33;2.70;;;;;;;;;;5022730;28;20186;-53
2023/08/07 09:15:10;;;;;;;5.53;2.60;;;;;;;;;;5021539;28;20606;-51
2023/08/07 09:17:40;;;;;;;4.80;2.97;;;;;;;;;;5023168;28;20186;-51
2023/08/07 09:20:10;;;;;;;4.37;2.70;;;;;;;;;;5023946;28;20195;-52
2023/08/07 09:22:36;;;;;;;5.23;2.70;;;;;;;;;;5024736;28;20190;-52
2023/08/07 09:25:03;;;;;;;5.33;2.97;;;;;;;;;;5025888;28;20660;-51
2023/08/07 09:27:29;;;;;;;9.57;3.13;;;;;;;;;;5026588;28;20210;-50
2023/08/07 09:29:56;;;;;;;6.83;3.30;;;;;;;;;;5020941;28;20463;-51
2023/08/07 09:32:23;;;;;;;7.57;3.17;;;;;;;;;;5026016;28;20278;-51
2023/08/07 09:34:50;;;;;;;6.90;3.13;;;;;;;;;;5023669;28;20256;-50
2023/08/07 09:37:16;;;;;;;5.83;2.90;;;;;;;;;;5023669;28;20214;-56
2023/08/07 09:39:43;;;;;;;11.77;4.30;;;;;;;;;;5022615;28;20724;-51
2023/08/07 09:42:16;;;;;;;7.10;3.00;;;;;;;;;;5025414;28;20670;-50
2023/08/07 09:44:42;;;;;;;4.73;2.80;;;;;;;;;;5023856;28;20220;-51
2023/08/07 09:47:17;;;;;;;8.07;2.93;;;;;;;;;;5025984;28;20750;-51
2023/08/07 09:49:44;;;;;;;7.03;3.03;;;;;;;;;;5019799;28;20191;-51
2023/08/07 09:52:11;;;;;;;5.20;2.50;;;;;;;;;;5021242;28;20578;-51
2023/08/07 09:54:37;;;;;;;6.70;3.13;;;;;;;;;;5013123;28;20567;-51
2023/08/07 09:57:03;;;;;;;4.97;3.37;;;;;;;;;;5026598;28;20214;-50
2023/08/07 09:59:30;;;;;;;5.83;3.23;;;;;;;;;;5026522;28;20182;-50
2023/08/07 10:01:56;;;;;;;5.47;2.60;;;;;;;;;;5029187;28;20189;-50
2023/08/07 10:04:22;;;;;;;5.67;3.50;;;;;;;;;;5029235;28;20182;-50
2023/08/07 10:06:48;;;;;;;7.03;3.57;;;;;;;;;;5026561;28;20213;-50
2023/08/07 10:09:15;;;;;;;4.00;2.43;;;;;;;;;;5037391;28;20182;-50
2023/08/07 10:11:42;;;;;;;6.13;2.90;;;;;;;;;;5033793;28;20246;-50
2023/08/07 10:14:09;;;;;;;6.47;3.10;;;;;;;;;;5030954;28;20284;-50
2023/08/07 10:16:40;;;;;;;7.20;3.53;;;;;;;;;;5032732;28;20249;-50
2023/08/07 10:19:06;;;;;;;5.03;3.00;;;;;;;;;;5031499;28;20587;-50
2023/08/07 10:21:36;;;;;;;7.43;3.47;;;;;;;;;;5028248;28;20196;-55
2023/08/07 10:24:07;;;;;;;10.50;4.20;;;;;;;;;;5026908;28;20194;-50
2023/08/07 10:26:34;;;;;;;6.43;2.90;;;;;;;;;;5030133;28;20195;-50
2023/08/07 10:29:02;;;;;;;4.73;2.87;;;;;;;;;;5030136;28;20243;-50
2023/08/07 10:31:29;;;;;;;7.43;3.33;;;;;;;;;;5028674;28;20657;-49
2023/08/07 10:33:56;;;;;;;6.17;3.60;;;;;;;;;;5032180;28;20191;-53
2023/08/07 10:36:22;;;;;;;6.53;2.73;;;;;;;;;;5030503;28;20222;-53
2023/08/07 10:38:53;;;;;;;4.97;3.60;;;;;;;;;;5033764;28;20200;-53
2023/08/07 10:41:20;;;;;;;7.73;2.87;;;;;;;;;;5025589;28;20212;-53
2023/08/07 10:43:47;;;;;;;4.43;3.03;;;;;;;;;;5029010;28;20531;-52
2023/08/07 10:46:20;;;;;;;9.30;3.30;;;;;;;;;;5029409;28;20562;-55
2023/08/07 10:48:47;;;;;;;5.17;2.77;;;;;;;;;;5028687;28;20655;-53
2023/08/07 10:51:17;;;;;;;5.27;3.03;;;;;;;;;;5023157;28;20205;-53
2023/08/07 10:53:45;;;;;;;4.30;3.17;;;;;;;;;;5027268;28;20190;-53
2023/08/07 10:56:17;;;;;;;5.97;2.87;;;;;;;;;;5026285;28;20267;-53
2023/08/07 10:58:48;;;;;;;4.17;2.50;;;;;;;;;;5027203;28;20998;-61
2023/08/07 11:01:19;;;;;;;5.57;2.80;;;;;;;;;;5024333;28;20199;-53
2023/08/07 11:03:45;;;;;;;6.53;2.90;;;;;;;;;;5026994;28;20653;-53
2023/08/07 11:06:11;;;;;;;7.43;2.87;;;;;;;;;;5026828;28;20190;-52
2023/08/07 11:08:38;;;;;;;4.40;2.60;;;;;;;;;;5026027;28;20284;-52
2023/08/07 11:11:05;;;;;;;4.23;2.80;;;;;;;;;;5007706;28;20346;-52
2023/08/07 11:13:31;;;;;;;3.13;2.23;;;;;;;;;;5026826;28;20614;-52
2023/08/07 11:15:59;;;;;;;3.87;2.47;;;;;;;;;;5027085;28;20696;-53
2023/08/07 11:18:26;;;;;;;3.37;2.50;;;;;;;;;;5026968;28;20175;-53
2023/08/07 11:20:58;;;;;;;4.13;2.30;;;;;;;;;;5008109;28;20592;-53
2023/08/07 11:23:28;;;;;;;4.33;2.77;;;;;;;;;;5025557;28;20218;-52
2023/08/07 11:25:55;;;;;;;5.80;2.80;;;;;;;;;;5004041;28;20595;-53
2023/08/07 11:28:22;;;;;;;6.77;3.40;;;;;;;;;;5015663;28;20296;-53
2023/08/07 11:30:51;;;;;;;4.70;2.90;;;;;;;;;;5024776;28;20206;-53
2023/08/07 11:33:20;;;;;;;4.57;3.40;;;;;;;;;;5024346;28;20240;-53
2023/08/07 11:35:50;;;;;;;4.90;2.57;;;;;;;;;;5023454;28;20229;-53
2023/08/07 11:38:36;;;;;;;4.13;2.90;;;;;;;;;;5022313;28;20205;-52
2023/08/07 11:41:03;;;;;;;8.83;2.80;;;;;;;;;;5023539;28;20203;-53
2023/08/07 11:43:30;;;;;;;4.87;2.50;;;;;;;;;;5027529;28;20194;-53
2023/08/07 11:46:01;;;;;;;4.80;2.40;;;;;;;;;;5020620;28;20217;-53
2023/08/07 11:48:27;;;;;;;7.53;2.97;;;;;;;;;;5027402;28;20220;-52
2023/08/07 11:50:55;;;;;;;4.53;2.73;;;;;;;;;;5024857;28;20193;-53
2023/08/07 11:53:21;;;;;;;5.33;3.03;;;;;;;;;;5020358;28;20190;-53
2023/08/07 11:56:00;;;;;;;4.77;2.60;;;;;;;;;;5024269;28;20376;-53
2023/08/07 11:58:27;;;;;;;4.70;2.53;;;;;;;;;;5024723;28;20506;-58
2023/08/07 12:00:54;;;;;;;3.50;2.63;;;;;;;;;;5028623;28;20190;-53
2023/08/07 12:03:31;;;;;;;5.23;2.90;;;;;;;;;;5027465;28;20186;-53
2023/08/07 12:05:58;;;;;;;3.00;2.30;;;;;;;;;;5027724;28;20192;-53
2023/08/07 12:08:25;;;;;;;5.40;2.50;;;;;;;;;;5027392;28;20534;-53
2023/08/07 12:10:55;;;;;;;2.97;2.00;;;;;;;;;;5020241;28;20228;-53
2023/08/07 12:13:25;;;;;;;4.17;2.33;;;;;;;;;;5023576;28;20684;-53
2023/08/07 12:15:52;;;;;;;6.87;2.87;;;;;;;;;;5026215;28;20218;-53
2023/08/07 12:18:20;;;;;;;5.40;2.43;;;;;;;;;;5027342;28;20187;-53
2023/08/07 12:20:46;;;;;;;4.33;2.70;;;;;;;;;;5028517;28;20225;-53
2023/08/07 12:23:16;;;;;;;7.83;2.77;;;;;;;;;;5003949;28;20795;-53
2023/08/07 12:25:43;;;;;;;5.63;2.30;;;;;;;;;;5026379;28;20190;-53
2023/08/07 12:28:09;;;;;;;4.70;2.50;;;;;;;;;;5023063;28;20190;-52
2023/08/07 12:30:35;;;;;;;6.83;2.50;;;;;;;;;;5024746;28;20689;-53
2023/08/07 12:33:07;;;;;;;4.70;2.13;;;;;;;;;;5029422;28;20506;-54
2023/08/07 12:35:33;;;;;;;4.57;2.30;;;;;;;;;;5027090;28;20209;-53
2023/08/07 12:37:59;;;;;;;5.80;2.40;;;;;;;;;;5024335;28;20615;-53
2023/08/07 12:40:25;;;;;;;4.00;3.13;;;;;;;;;;5028424;28;20193;-53
2023/08/07 12:42:52;;;;;;;4.07;2.50;;;;;;;;;;5028150;28;20600;-53
2023/08/07 12:45:19;;;;;;;6.33;2.60;;;;;;;;;;5027515;28;20194;-53
2023/08/07 12:47:45;;;;;;;3.63;2.57;;;;;;;;;;5024212;28;20194;-53
2023/08/07 12:50:11;;;;;;;4.70;2.60;;;;;;;;;;5023064;28;20186;-53
2023/08/07 12:52:38;;;;;;;3.23;2.20;;;;;;;;;;5025673;28;20193;-53
2023/08/07 12:55:05;;;;;;;4.60;2.73;;;;;;;;;;5026759;28;20213;-53
2023/08/07 12:57:31;;;;;;;3.03;2.23;;;;;;;;;;5026883;28;20257;-53
2023/08/07 12:59:57;;;;;;;4.30;2.13;;;;;;;;;;5019896;28;20190;-53
2023/08/07 13:02:24;;;;;;;3.20;2.20;;;;;;;;;;5027610;28;20683;-52
2023/08/07 13:04:50;;;;;;;7.27;2.67;;;;;;;;;;5019241;28;20202;-49
2023/08/07 13:07:17;;;;;;;4.37;2.47;;;;;;;;;;5023704;28;20235;-50
2023/08/07 13:09:43;;;;;;;2.90;2.40;;;;;;;;;;5019380;28;20917;-50
2023/08/07 13:12:09;;;;;;;5.00;2.10;;;;;;;;;;5025381;28;20197;-50
2023/08/07 13:14:35;;;;;;;6.60;2.20;;;;;;;;;;5023344;28;20197;-50
2023/08/07 13:17:01;;;;;;;3.47;2.20;;;;;;;;;;5021449;28;20189;-49
2023/08/07 13:19:27;;;;;;;3.33;2.23;;;;;;;;;;5022809;28;20186;-49
2023/08/07 13:21:54;;;;;;;4.10;2.20;;;;;;;;;;5022158;28;20268;-50
2023/08/07 13:24:20;;;;;;;2.90;2.40;;;;;;;;;;5003018;28;20470;-49
2023/08/07 13:26:46;;;;;;;3.80;2.40;;;;;;;;;;5019071;28;20600;-48
2023/08/07 13:29:12;;;;;;;4.37;2.80;;;;;;;;;;5022472;28;20177;-48
2023/08/07 13:31:41;;;;;;;3.00;2.10;;;;;;;;;;5023149;28;20576;-48
2023/08/07 13:34:08;;;;;;;4.50;2.17;;;;;;;;;;5015195;28;20186;-49
2023/08/07 13:36:38;;;;;;;4.47;3.20;;;;;;;;;;5025299;28;20647;-48
2023/08/07 13:39:06;;;;;;;4.03;2.10;;;;;;;;;;5023670;28;20256;-49
2023/08/07 13:41:33;;;;;;;3.63;2.30;;;;;;;;;;5028276;28;20204;-48
2023/08/07 13:43:59;;;;;;;3.90;2.33;;;;;;;;;;5024100;28;20190;-49
2023/08/07 13:46:26;;;;;;;2.30;2.00;;;;;;;;;;5027891;28;20186;-49
2023/08/07 13:48:52;;;;;;;4.30;2.07;;;;;;;;;;5028269;28;20216;-50
2023/08/07 13:51:18;;;;;;;2.87;2.07;;;;;;;;;;5028186;28;20190;-49
2023/08/07 13:53:44;;;;;;;4.00;2.50;;;;;;;;;;5026030;28;20287;-48
2023/08/07 13:56:12;;;;;;;4.80;2.03;;;;;;;;;;5022582;28;20233;-50
2023/08/07 13:58:39;;;;;;;4.37;2.20;;;;;;;;;;5027249;28;20209;-50
2023/08/07 14:01:05;;;;;;;6.40;2.23;;;;;;;;;;5022808;28;20684;-49
2023/08/07 14:03:31;;;;;;;3.20;2.40;;;;;;;;;;5024639;28;20660;-49
2023/08/07 14:05:58;;;;;;;5.80;2.23;;;;;;;;;;5026969;28;20942;-49
2023/08/07 14:08:24;;;;;;;2.43;2.10;;;;;;;;;;5029197;28;20188;-50
2023/08/07 14:10:50;;;;;;;3.50;2.23;;;;;;;;;;5025209;28;20193;-50
2023/08/07 14:13:17;;;;;;;3.33;2.07;;;;;;;;;;5008827;28;20596;-48
2023/08/07 14:15:43;;;;;;;4.97;2.00;;;;;;;;;;5028555;28;20213;-54
2023/08/07 14:18:11;;;;;;;3.23;2.03;;;;;;;;;;5029933;28;20198;-53
2023/08/07 14:20:37;;;;;;;2.60;2.03;;;;;;;;;;5010570;28;20261;-52
2023/08/07 14:23:04;;;;;;;2.33;1.90;;;;;;;;;;5027116;28;20201;-52
2023/08/07 14:25:30;;;;;;;3.47;2.03;;;;;;;;;;5028414;28;20600;-53
2023/08/07 14:27:56;;;;;;;4.37;2.10;;;;;;;;;;5031758;28;20555;-53
2023/08/07 14:30:22;;;;;;;4.10;2.10;;;;;;;;;;5026774;28;20625;-52
2023/08/07 14:32:49;;;;;;;4.27;2.10;;;;;;;;;;5028772;28;20255;-53
2023/08/07 14:35:15;;;;;;;2.00;1.80;;;;;;;;;;5008627;28;20221;-51
2023/08/07 14:37:41;;;;;;;4.27;2.30;;;;;;;;;;5027727;28;20325;-52
2023/08/07 14:40:08;;;;;;;4.33;2.20;;;;;;;;;;5026369;28;20232;-51
2023/08/07 14:42:34;;;;;;;2.77;1.87;;;;;;;;;;5019538;28;20198;-53